Time;durP1;ratioP1;P1;durP2;ratioP2;P2;SDS_P1;SDS_P2;PMS_P1;PMS_P2;Temp;Humidity;BMP_temperature;BMP_pressure;BME280_temperature;BME280_humidity;BME280_pressure;Samples;Min_cycle;Max_cycle;Signal;HPM_P1;HPM_P2
2022/11/29 00:00:32;;;;;;;;;10.50;7.50;;;;;11.75;59.94;100790.22;5023859;28;45395;-36
2022/11/29 00:02:57;;;;;;;;;6.00;5.25;;;;;11.75;59.58;100784.97;5032276;28;45214;-36
2022/11/29 00:05:22;;;;;;;;;8.75;7.75;;;;;11.75;59.73;100785.81;5025845;28;70657;-36
2022/11/29 00:07:48;;;;;;;;;7.25;5.75;;;;;11.74;59.37;100786.75;5026478;28;73494;-35
2022/11/29 00:10:13;;;;;;;;;6.00;4.75;;;;;11.72;59.76;100787.69;5021107;28;45452;-35
2022/11/29 00:12:39;;;;;;;;;8.50;5.50;;;;;11.72;59.39;100792.94;5048041;28;45540;-35
2022/11/29 00:15:04;;;;;;;;;7.25;4.00;;;;;11.70;59.42;100792.13;5029639;28;45390;-35
2022/11/29 00:17:30;;;;;;;;;9.50;6.25;;;;;11.68;59.51;100792.16;5037121;27;45474;-35
2022/11/29 00:19:55;;;;;;;;;5.25;4.25;;;;;11.65;59.55;100792.28;5025145;28;45276;-35
2022/11/29 00:22:23;;;;;;;;;5.25;5.25;;;;;11.62;59.79;100791.50;5031418;28;45314;-36
2022/11/29 00:24:49;;;;;;;;;6.00;2.25;;;;;11.57;60.00;100792.50;5033505;27;45530;-35
2022/11/29 00:27:14;;;;;;;;;6.00;5.00;;;;;11.56;60.05;100793.41;5021653;27;46130;-35
2022/11/29 00:29:40;;;;;;;;;7.75;5.00;;;;;11.55;59.62;100796.06;5032682;28;53188;-35
2022/11/29 00:32:05;;;;;;;;;5.25;5.00;;;;;11.54;60.19;100799.59;5032655;27;45635;-35
2022/11/29 00:34:30;;;;;;;;;7.50;4.75;;;;;11.50;59.77;100792.72;5027482;28;66302;-35
2022/11/29 00:36:56;;;;;;;;;7.25;5.00;;;;;11.52;59.89;100807.50;5027608;28;69918;-35
2022/11/29 00:39:21;;;;;;;;;10.25;4.25;;;;;11.53;60.03;100806.59;5019870;28;49327;-35
2022/11/29 00:41:46;;;;;;;;;7.25;4.25;;;;;11.53;60.17;100803.97;5034074;28;45257;-35
2022/11/29 00:44:12;;;;;;;;;5.25;3.75;;;;;11.53;59.86;100808.38;5035585;28;45215;-35
2022/11/29 00:46:37;;;;;;;;;7.00;5.00;;;;;11.53;60.09;100805.75;5028162;28;52478;-35
2022/11/29 00:49:03;;;;;;;;;8.00;5.50;;;;;11.54;59.91;100804.84;5037785;28;45197;-35
2022/11/29 00:51:28;;;;;;;;;6.50;4.50;;;;;11.51;59.71;100808.41;5038416;28;45404;-35
2022/11/29 00:53:54;;;;;;;;;5.25;5.25;;;;;11.51;60.14;100816.28;5037573;28;64147;-35
2022/11/29 00:56:19;;;;;;;;;6.50;5.50;;;;;11.50;59.78;100811.06;5031159;28;56877;-35
2022/11/29 00:58:44;;;;;;;;;7.00;5.00;;;;;11.46;60.05;100812.94;5034750;28;51146;-35
2022/11/29 01:01:10;;;;;;;;;6.25;4.00;;;;;11.45;60.07;100808.59;5026144;28;45460;-35
2022/11/29 01:03:36;;;;;;;;;3.75;3.00;;;;;11.44;60.19;100804.25;5037033;28;45452;-35
2022/11/29 01:06:04;;;;;;;;;6.00;5.50;;;;;11.46;60.41;100809.47;5043824;27;46045;-35
2022/11/29 01:08:29;;;;;;;;;6.00;5.50;;;;;11.48;60.34;100805.03;5044563;27;45452;-35
2022/11/29 01:11:22;;;;;;;;;6.00;3.25;;;;;11.49;60.25;100802.38;5029545;28;45449;-35
2022/11/29 01:13:49;;;;;;;;;6.75;5.00;;;;;11.50;60.42;100803.22;5024827;28;45261;-35
2022/11/29 01:16:15;;;;;;;;;3.50;3.50;;;;;11.50;60.06;100801.44;5024129;28;46417;-35
2022/11/29 01:18:41;;;;;;;;;5.75;4.00;;;;;11.49;60.43;100807.59;5032033;27;45420;-35
2022/11/29 01:21:12;;;;;;;;;6.25;5.00;;;;;11.48;59.96;100805.88;5037693;28;45357;-35
2022/11/29 01:23:38;;;;;;;;;6.00;5.50;;;;;11.47;60.11;100808.53;5031020;28;46161;-35
2022/11/29 01:26:07;;;;;;;;;8.00;4.25;;;;;11.49;60.02;100815.47;5025194;28;45444;-35
2022/11/29 01:28:33;;;;;;;;;7.00;4.25;;;;;11.48;60.14;100818.97;5032543;28;45223;-35
2022/11/29 01:30:58;;;;;;;;;6.75;5.00;;;;;11.47;60.46;100811.16;5037309;28;45378;-35
2022/11/29 01:33:24;;;;;;;;;6.00;4.25;;;;;11.46;60.30;100825.19;5023044;28;45459;-35
2022/11/29 01:35:51;;;;;;;;;6.00;4.00;;;;;11.45;60.38;100826.94;5043229;28;47142;-35
2022/11/29 01:38:16;;;;;;;;;5.75;3.50;;;;;11.43;60.15;100825.28;5040583;28;46074;-35
2022/11/29 01:40:42;;;;;;;;;7.50;5.00;;;;;11.42;60.28;100828.78;5025776;28;45287;-35
2022/11/29 01:43:15;;;;;;;;;6.00;5.00;;;;;11.40;60.41;100834.94;5034389;28;45327;-35
2022/11/29 01:45:40;;;;;;;;;4.50;3.25;;;;;11.39;60.81;100835.81;5025898;28;46192;-35
2022/11/29 01:48:06;;;;;;;;;4.50;3.75;;;;;11.40;60.66;100834.06;5023483;28;65267;-35
2022/11/29 01:50:31;;;;;;;;;4.50;3.00;;;;;11.40;60.75;100836.69;5028322;28;51445;-35
2022/11/29 01:52:57;;;;;;;;;6.50;3.00;;;;;11.41;60.53;100846.28;5036182;28;58305;-35
2022/11/29 01:55:23;;;;;;;;;8.75;4.50;;;;;11.42;60.53;100852.34;5025545;28;46120;-35
2022/11/29 01:57:48;;;;;;;;;4.50;4.00;;;;;11.44;60.42;100847.94;5049467;28;67157;-36
2022/11/29 02:00:18;;;;;;;;;5.50;4.00;;;;;11.44;60.72;100848.81;5031494;27;66256;-42
2022/11/29 02:02:49;;;;;;;;;5.75;4.50;;;;;11.42;60.62;100854.97;5031290;28;45430;-36
2022/11/29 02:05:16;;;;;;;;;6.00;4.00;;;;;11.44;60.33;100855.78;5056800;27;45580;-36
2022/11/29 02:07:44;;;;;;;;;5.00;3.75;;;;;11.42;60.89;100861.09;5025833;28;45417;-35
2022/11/29 02:10:09;;;;;;;;;3.75;3.00;;;;;11.41;60.75;100864.63;5039051;28;45492;-35
2022/11/29 02:13:00;;;;;;;;;4.75;4.00;;;;;11.40;60.56;100861.13;5030450;28;45494;-35
2022/11/29 02:16:01;;;;;;;;;7.25;5.00;;;;;11.43;60.94;100864.56;5035994;28;45363;-35
2022/11/29 02:18:37;;;;;;;;;5.25;3.25;;;;;11.44;60.74;100868.91;5061338;27;45612;-35
2022/11/29 02:21:23;;;;;;;;;5.00;3.25;;;;;11.46;60.77;100867.13;5047224;27;45512;-35
2022/11/29 02:24:10;;;;;;;;;6.50;4.00;;;;;11.48;60.68;100865.31;5020976;28;45876;-35
2022/11/29 02:27:00;;;;;;;;;5.75;3.25;;;;;11.49;60.40;100869.63;5019237;28;45388;-35
2022/11/29 02:29:44;;;;;;;;;3.00;3.00;;;;;11.48;60.63;100870.53;5033518;28;45772;-35
2022/11/29 02:32:36;;;;;;;;;6.50;3.75;;;;;11.45;60.52;100865.38;5032662;28;45508;-43
2022/11/29 02:35:26;;;;;;;;;5.00;3.00;;;;;11.47;60.64;100871.44;5033661;28;45445;-35
2022/11/29 02:38:12;;;;;;;;;7.00;6.00;;;;;11.48;60.84;100868.78;5022440;28;45554;-35
2022/11/29 02:41:14;;;;;;;;;8.50;6.00;;;;;11.50;61.03;100869.59;5023582;28;46134;-36
2022/11/29 02:44:15;;;;;;;;;7.75;4.75;;;;;11.50;60.58;100872.19;5021832;28;45468;-35
2022/11/29 02:47:26;;;;;;;;;5.00;4.25;;;;;11.51;60.87;100868.69;4985232;28;45419;-35
2022/11/29 02:50:17;;;;;;;;;7.00;4.25;;;;;11.51;60.74;100871.31;5036853;27;45342;-35
2022/11/29 02:53:19;;;;;;;;;7.50;5.00;;;;;11.52;60.52;100867.78;5033847;28;45437;-35
2022/11/29 02:56:03;;;;;;;;;5.75;4.50;;;;;11.51;60.63;100873.94;5036016;28;45476;-35
2022/11/29 02:58:43;;;;;;;;;6.00;4.25;;;;;11.51;60.72;100878.28;5036225;28;45309;-35
2022/11/29 03:01:24;;;;;;;;;4.25;3.00;;;;;11.52;60.43;100877.41;5016283;28;45708;-34
2022/11/29 03:03:52;;;;;;;;;6.25;6.25;;;;;11.50;60.79;100877.44;5029096;28;45337;-35
2022/11/29 03:06:39;;;;;;;;;7.50;6.25;;;;;11.48;60.74;100875.78;5091481;27;45408;-35
2022/11/29 03:09:18;;;;;;;;;6.50;5.75;;;;;11.49;60.81;100880.09;5025911;28;45368;-35
2022/11/29 03:11:51;;;;;;;;;6.25;5.25;;;;;11.49;60.63;100877.47;5025441;28;47311;-35
2022/11/29 03:14:26;;;;;;;;;4.00;3.25;;;;;11.49;60.67;100886.22;5037494;27;45372;-35
2022/11/29 03:17:16;;;;;;;;;4.50;4.00;;;;;11.50;60.54;100893.16;5032533;27;45609;-35
2022/11/29 03:19:47;;;;;;;;;5.50;4.00;;;;;11.50;60.63;100892.31;5017983;28;45332;-35
2022/11/29 03:22:37;;;;;;;;;8.75;5.00;;;;;11.50;60.67;100895.78;5031394;28;46377;-35
2022/11/29 03:25:22;;;;;;;;;7.50;4.00;;;;;11.50;60.31;100892.31;5028919;28;45784;-35
2022/11/29 03:28:12;;;;;;;;;8.75;5.75;;;;;11.48;60.37;100896.75;5039851;27;45310;-35
2022/11/29 03:30:39;;;;;;;;;6.00;5.00;;;;;11.47;60.98;100895.88;5023593;28;45404;-35
2022/11/29 03:33:11;;;;;;;;;7.50;6.25;;;;;11.47;60.58;100897.63;5032140;28;46352;-35
2022/11/29 03:35:47;;;;;;;;;6.00;5.00;;;;;11.46;60.92;100899.41;5022047;28;45458;-35
2022/11/29 03:38:37;;;;;;;;;7.00;6.00;;;;;11.45;60.60;100896.81;5036162;28;45490;-35
2022/11/29 03:41:19;;;;;;;;;8.00;6.00;;;;;11.44;60.44;100906.47;5019423;28;45366;-35
2022/11/29 03:43:54;;;;;;;;;6.50;5.50;;;;;11.43;60.72;100898.63;5034046;28;45430;-35
2022/11/29 03:46:27;;;;;;;;;8.50;8.00;;;;;11.44;60.97;100906.47;5036029;28;45429;-35
2022/11/29 03:48:58;;;;;;;;;5.75;5.75;;;;;11.45;60.88;100912.56;5037721;27;45391;-34
2022/11/29 03:52:19;;;;;;;;;9.00;6.00;;;;;11.45;61.04;100917.78;5021835;28;45365;-35
2022/11/29 03:55:06;;;;;;;;;11.50;8.50;;;;;11.43;60.60;100909.97;4982461;28;45386;-35
2022/11/29 03:58:00;;;;;;;;;7.75;6.00;;;;;11.44;60.81;100916.94;5030698;28;45408;-35
2022/11/29 04:00:31;;;;;;;;;5.75;5.25;;;;;11.43;60.67;100920.44;5018050;28;45328;-35
2022/11/29 04:03:24;;;;;;;;;8.00;7.25;;;;;11.43;60.96;100927.47;5026840;28;45881;-34
2022/11/29 04:05:52;;;;;;;;;10.50;9.00;;;;;11.43;60.74;100927.47;5024727;28;45272;-35
2022/11/29 04:08:20;;;;;;;;;9.25;9.25;;;;;11.42;60.83;100926.63;5033145;28;46641;-35
2022/11/29 04:11:12;;;;;;;;;10.75;8.00;;;;;11.44;60.93;100934.41;5020159;28;45809;-35
2022/11/29 04:13:55;;;;;;;;;8.00;7.00;;;;;11.44;61.02;100926.53;5031166;28;45522;-35
2022/11/29 04:16:49;;;;;;;;;8.50;8.00;;;;;11.43;60.68;100938.78;5038623;27;45448;-35
2022/11/29 04:19:14;;;;;;;;;15.25;8.00;;;;;11.40;60.91;100942.38;5031389;28;45753;-35
2022/11/29 04:22:15;;;;;;;;;8.33;6.67;;;;;11.39;60.58;100935.41;5025324;28;45635;-35
2022/11/29 04:24:44;;;;;;;;;8.75;5.75;;;;;11.39;60.96;100942.41;5023104;28;45491;-35
2022/11/29 04:27:49;;;;;;;;;10.00;7.50;;;;;11.40;60.75;100951.97;5038381;28;45683;-35
2022/11/29 04:30:20;;;;;;;;;8.00;7.00;;;;;11.39;60.62;100958.13;5031428;28;45862;-35
2022/11/29 04:33:12;;;;;;;;;7.75;7.50;;;;;11.37;60.78;100955.56;5027185;28;45433;-35
2022/11/29 04:35:49;;;;;;;;;11.25;7.00;;;;;11.33;60.96;100959.16;5030628;28;45461;-35
2022/11/29 04:38:24;;;;;;;;;11.50;8.00;;;;;11.32;60.96;100956.56;5020186;28;45359;-35
2022/11/29 04:41:12;;;;;;;;;8.75;7.75;;;;;11.32;61.01;100969.69;5020674;28;45373;-35
2022/11/29 04:43:52;;;;;;;;;11.00;9.00;;;;;11.32;60.76;100967.06;5036374;28;45464;-35
2022/11/29 04:46:35;;;;;;;;;9.75;8.50;;;;;11.29;61.06;100970.59;5033729;28;45491;-35
2022/11/29 04:49:36;;;;;;;;;10.00;10.00;;;;;11.25;61.02;100970.75;5033353;28;46360;-35
2022/11/29 04:52:04;;;;;;;;;13.00;8.75;;;;;11.27;60.95;100968.94;5018838;28;45324;-35
2022/11/29 04:54:56;;;;;;;;;10.50;9.00;;;;;11.28;61.22;100962.78;5025016;28;45343;-35
2022/11/29 04:57:53;;;;;;;;;12.25;10.00;;;;;11.29;61.11;100975.00;5037176;28;45410;-35
2022/11/29 05:00:21;;;;;;;;;13.50;10.25;;;;;11.31;61.16;100986.28;5015194;28;46231;-35
2022/11/29 05:03:03;;;;;;;;;12.25;9.50;;;;;11.32;61.16;100985.41;5019568;28;45368;-35
2022/11/29 05:05:40;;;;;;;;;14.00;9.25;;;;;11.31;60.93;100984.50;5029409;28;45366;-35
2022/11/29 05:08:30;;;;;;;;;12.50;7.50;;;;;11.33;61.05;100985.38;5033339;28;45607;-35
2022/11/29 05:11:23;;;;;;;;;9.50;9.00;;;;;11.33;61.02;100987.97;5025879;28;45437;-35
2022/11/29 05:14:10;;;;;;;;;9.75;9.00;;;;;11.33;61.16;100987.09;5030663;28;45329;-35
2022/11/29 05:16:48;;;;;;;;;11.00;8.50;;;;;11.31;61.27;100986.28;5019496;28;45425;-35
2022/11/29 05:19:26;;;;;;;;;10.00;10.00;;;;;11.31;61.17;100994.16;5122442;27;45529;-35
2022/11/29 05:21:54;;;;;;;;;17.25;10.25;;;;;11.31;61.14;100999.38;5036072;28;46260;-35
2022/11/29 05:24:25;;;;;;;;;16.00;9.00;;;;;11.31;61.31;100995.00;5038049;28;45513;-35
2022/11/29 05:27:09;;;;;;;;;13.00;12.00;;;;;11.34;60.83;100994.06;5035373;28;45389;-35
2022/11/29 05:29:49;;;;;;;;;13.00;11.00;;;;;11.35;61.01;101001.03;5025794;28;45633;-35
2022/11/29 05:32:20;;;;;;;;;10.50;10.00;;;;;11.34;61.10;101004.56;5026663;28;46193;-34
2022/11/29 05:35:24;;;;;;;;;15.00;12.25;;;;;11.35;61.00;101007.13;5031800;28;45780;-35
2022/11/29 05:38:15;;;;;;;;;11.75;9.75;;;;;11.33;60.95;101014.19;5028111;28;45225;-35
2022/11/29 05:40:49;;;;;;;;;12.50;11.00;;;;;11.30;61.28;101022.13;5049528;27;46270;-35
2022/11/29 05:43:21;;;;;;;;;14.25;9.50;;;;;11.32;60.78;101022.09;5035961;28;45358;-35
2022/11/29 05:46:08;;;;;;;;;11.25;8.25;;;;;11.31;61.22;101026.44;5035110;28;45959;-35
2022/11/29 05:48:47;;;;;;;;;13.50;10.00;;;;;11.31;60.96;101034.28;5050122;27;45399;-35
2022/11/29 05:51:32;;;;;;;;;15.50;9.75;;;;;11.33;61.22;101034.25;5040894;28;45289;-35
2022/11/29 05:54:20;;;;;;;;;13.75;9.75;;;;;11.33;61.15;101039.50;5071491;27;45429;-35
2022/11/29 05:56:56;;;;;;;;;16.50;11.75;;;;;11.30;60.86;101040.47;5028002;28;45523;-35
2022/11/29 05:59:26;;;;;;;;;3.00;1.25;;;;;11.27;60.99;101040.53;5026040;28;45392;-35
2022/11/29 06:02:19;;;;;;;;;15.00;11.00;;;;;11.24;61.49;101044.97;5030112;28;45526;-35
2022/11/29 06:04:58;;;;;;;;;13.25;9.25;;;;;11.24;61.17;101047.59;5034890;27;46107;-35
2022/11/29 06:07:38;;;;;;;;;12.25;11.50;;;;;11.21;61.37;101049.41;5074600;27;45382;-35
2022/11/29 06:10:21;;;;;;;;;37.75;28.75;;;;;11.19;61.14;101050.31;5024789;28;45400;-35
2022/11/29 06:13:13;;;;;;;;;22.50;19.25;;;;;11.21;61.30;101059.03;5058862;27;45444;-41
2022/11/29 06:15:55;;;;;;;;;14.50;12.25;;;;;11.20;61.06;101063.38;5082249;27;45962;-35
2022/11/29 06:18:43;;;;;;;;;14.50;11.00;;;;;11.21;61.00;101061.66;5027241;28;45492;-35
2022/11/29 06:21:23;;;;;;;;;11.75;11.50;;;;;11.21;61.23;101061.66;5035617;28;45973;-35
2022/11/29 06:24:06;;;;;;;;;12.25;11.50;;;;;11.20;61.42;101070.38;5032206;28;45449;-35
2022/11/29 06:26:37;;;;;;;;;14.00;10.50;;;;;11.17;61.28;101071.34;5037379;28;46161;-35
2022/11/29 06:29:41;;;;;;;;;15.25;12.00;;;;;11.13;61.54;101069.66;5029183;28;45718;-35
2022/11/29 06:32:49;;;;;;;;;16.00;12.50;;;;;11.10;61.20;101072.38;5075398;27;45402;-35
2022/11/29 06:35:34;;;;;;;;;12.50;11.75;;;;;11.07;61.45;101075.06;5021015;28;45634;-35
2022/11/29 06:38:17;;;;;;;;;17.25;14.75;;;;;11.05;61.77;101081.22;5021775;28;45507;-35
2022/11/29 06:40:43;;;;;;;;;16.25;13.75;;;;;11.04;61.65;101083.00;5049709;28;45736;-35
2022/11/29 06:43:08;;;;;;;;;19.75;15.75;;;;;11.04;61.35;101075.13;5040537;28;45321;-35
2022/11/29 06:45:34;;;;;;;;;17.50;14.25;;;;;11.03;61.63;101083.91;5021013;28;46074;-35
2022/11/29 06:48:05;;;;;;;;;23.50;17.00;;;;;11.02;61.32;101087.41;5031028;28;47773;-35
2022/11/29 06:50:46;;;;;;;;;18.25;14.75;;;;;11.03;61.34;101091.75;5033919;28;46014;-35
2022/11/29 06:53:21;;;;;;;;;20.25;18.75;;;;;10.98;61.58;101088.38;5029289;28;45534;-35
2022/11/29 06:55:55;;;;;;;;;18.50;17.00;;;;;10.96;61.87;101104.13;5029677;28;45284;-36
2022/11/29 06:58:48;;;;;;;;;20.75;15.25;;;;;10.94;61.73;101095.44;5031296;27;48132;-35
2022/11/29 07:01:35;;;;;;;;;30.75;18.25;;;;;10.90;61.87;101106.03;5020953;28;45278;-36
2022/11/29 07:04:13;;;;;;;;;22.00;17.50;;;;;10.87;61.65;101109.59;5021581;28;45597;-35
2022/11/29 07:06:38;;;;;;;;;21.75;16.00;;;;;10.83;61.97;101110.53;5025643;28;45383;-36
2022/11/29 07:09:16;;;;;;;;;18.50;15.25;;;;;10.79;61.59;101107.13;5033033;27;47146;-35
2022/11/29 07:11:42;;;;;;;;;21.25;14.25;;;;;10.77;61.98;101113.28;5027701;28;45299;-36
2022/11/29 07:14:08;;;;;;;;;21.00;17.75;;;;;10.77;61.81;101122.00;5036630;28;45232;-35
2022/11/29 07:17:02;;;;;;;;;21.00;17.75;;;;;10.77;61.82;101124.63;5030505;28;45544;-36
2022/11/29 07:19:39;;;;;;;;;22.00;19.25;;;;;10.77;62.07;101124.63;5033034;28;47670;-37
2022/11/29 07:22:32;;;;;;;;;21.50;18.75;;;;;10.75;62.00;101126.41;5029967;28;45247;-37
2022/11/29 07:25:00;;;;;;;;;23.50;19.00;;;;;10.75;61.97;101123.78;5023683;28;45493;-37
2022/11/29 07:27:51;;;;;;;;;20.75;17.50;;;;;10.73;61.66;101128.19;5027924;28;45282;-37
2022/11/29 07:30:42;;;;;;;;;25.75;19.00;;;;;10.72;61.80;101123.00;5019844;28;45565;-38
2022/11/29 07:33:23;;;;;;;;;25.50;21.25;;;;;10.67;61.74;101120.47;5026102;27;45499;-37
2022/11/29 07:36:05;;;;;;;;;24.25;22.50;;;;;10.63;61.53;101130.13;5020062;28;46283;-37
2022/11/29 07:38:59;;;;;;;;;28.50;23.50;;;;;10.63;61.63;101137.13;5027067;28;45470;-37
2022/11/29 07:41:36;;;;;;;;;29.00;21.50;;;;;10.60;61.83;101135.44;5030096;28;46739;-37
2022/11/29 07:44:08;;;;;;;;;27.50;22.00;;;;;10.58;61.60;101138.97;5036129;28;46528;-38
2022/11/29 07:46:34;;;;;;;;;28.50;26.00;;;;;10.54;61.72;101139.94;5035529;27;45392;-37
2022/11/29 07:48:59;;;;;;;;;34.75;26.50;;;;;10.51;61.45;101142.63;5059824;27;68430;-37
2022/11/29 07:51:24;;;;;;;;;30.50;26.75;;;;;10.47;61.59;101149.66;5080180;27;73300;-37
2022/11/29 07:53:50;;;;;;;;;36.00;27.00;;;;;10.43;61.62;101148.00;5037628;28;66958;-37
2022/11/29 07:56:15;;;;;;;;;29.25;22.00;;;;;10.42;61.64;101161.97;5034374;28;48463;-37
2022/11/29 07:58:41;;;;;;;;;25.25;23.75;;;;;10.38;61.50;101157.72;5032432;28;47659;-37
2022/11/29 08:01:06;;;;;;;;;22.25;17.00;;;;;10.35;61.65;101158.59;5032638;28;46298;-37
2022/11/29 08:03:34;;;;;;;;;37.25;26.75;;;;;10.33;61.57;101152.56;5034937;28;65549;-36
2022/11/29 08:05:59;;;;;;;;;39.50;27.50;;;;;10.31;61.63;101162.19;5037172;28;45185;-36
2022/11/29 08:08:24;;;;;;;;;35.00;26.75;;;;;10.29;61.39;101163.94;5034406;28;67644;-37
2022/11/29 08:10:50;;;;;;;;;33.00;28.50;;;;;10.25;61.61;101164.88;5041381;28;65757;-37
2022/11/29 08:13:18;;;;;;;;;31.25;22.75;;;;;10.23;61.31;101157.06;5041178;28;74107;-37
2022/11/29 08:15:45;;;;;;;;;35.75;25.75;;;;;10.20;61.42;101169.34;5030605;28;45322;-37
2022/11/29 08:18:10;;;;;;;;;29.50;27.50;;;;;10.16;61.20;101175.50;5042836;28;45471;-37
2022/11/29 08:20:35;;;;;;;;;31.25;26.50;;;;;10.12;61.39;101173.84;5041637;28;48150;-37
2022/11/29 08:23:02;;;;;;;;;34.00;30.00;;;;;10.10;61.47;101173.03;5025844;28;45345;-37
2022/11/29 08:25:27;;;;;;;;;28.50;26.00;;;;;10.12;61.57;101174.69;5038923;28;45161;-37
2022/11/29 08:27:54;;;;;;;;;32.00;27.75;;;;;10.09;61.56;101182.59;5023438;28;45374;-37
2022/11/29 08:30:22;;;;;;;;;33.50;27.25;;;;;10.07;61.52;101184.38;5039821;28;46286;-37
2022/11/29 08:32:49;;;;;;;;;36.00;23.00;;;;;10.05;61.80;101191.38;5041134;28;45388;-37
2022/11/29 08:35:15;;;;;;;;;31.00;22.75;;;;;10.05;61.51;101192.25;5062053;27;46409;-37
2022/11/29 08:37:41;;;;;;;;;27.25;23.50;;;;;10.04;61.51;101195.78;5047153;27;45591;-37
2022/11/29 08:40:07;;;;;;;;;35.50;26.25;;;;;10.03;61.27;101203.63;5037914;28;45301;-37
2022/11/29 08:42:32;;;;;;;;;23.25;22.50;;;;;10.04;61.27;101203.63;5024329;28;45477;-37
2022/11/29 08:44:57;;;;;;;;;31.00;22.75;;;;;10.02;61.64;101213.25;5040258;28;45548;-36
2022/11/29 08:47:35;;;;;;;;;28.50;23.75;;;;;10.03;61.65;101211.47;5038605;28;61184;-37
2022/11/29 08:50:21;;;;;;;;;35.25;25.00;;;;;10.00;61.67;101215.00;5038007;28;45410;-37
2022/11/29 08:55:39;;;;;;;;;27.25;19.75;;;;;9.98;61.21;101227.22;5021963;28;45317;-37
2022/11/29 08:58:10;;;;;;;;;27.25;18.00;;;;;9.94;61.90;101235.16;5022086;28;45185;-37
2022/11/29 09:00:36;;;;;;;;;26.50;17.25;;;;;9.93;61.66;101242.13;5021189;27;45653;-37
2022/11/29 09:05:47;;;;;;;;;24.50;21.75;;;;;9.92;61.73;101243.03;5030122;28;45400;-37
2022/11/29 09:08:12;;;;;;;;;30.00;21.25;;;;;9.92;61.56;101240.41;5027898;28;45418;-37
2022/11/29 09:10:39;;;;;;;;;29.75;18.75;;;;;9.95;61.35;101244.72;5029037;28;45360;-37
2022/11/29 09:13:05;;;;;;;;;17.50;14.25;;;;;9.94;61.62;101238.63;5090355;27;45797;-37
2022/11/29 09:15:31;;;;;;;;;23.50;16.75;;;;;9.96;61.36;101246.47;5038667;28;45277;-37
2022/11/29 09:17:56;;;;;;;;;29.50;18.25;;;;;9.97;61.43;101248.16;5025288;28;45227;-37
2022/11/29 09:20:21;;;;;;;;;22.25;16.25;;;;;9.98;61.34;101247.28;5030030;28;45341;-37
2022/11/29 09:22:47;;;;;;;;;26.00;19.00;;;;;9.97;61.34;101254.28;5036222;28;61543;-37
2022/11/29 09:25:13;;;;;;;;;19.50;16.75;;;;;9.99;61.38;101262.97;5028637;28;45431;-38
2022/11/29 09:27:40;;;;;;;;;19.50;16.00;;;;;9.99;61.43;101265.56;5027979;28;45341;-38
2022/11/29 09:30:07;;;;;;;;;19.50;17.50;;;;;9.98;61.54;101270.81;5029638;27;45380;-37
2022/11/29 09:32:33;;;;;;;;;20.50;18.50;;;;;9.97;61.05;101272.59;5033905;27;45229;-37
2022/11/29 09:34:58;;;;;;;;;25.00;14.00;;;;;9.96;60.87;101275.22;5021250;28;45362;-37
2022/11/29 09:37:24;;;;;;;;;19.25;16.25;;;;;9.96;60.83;101283.06;5024566;28;65565;-39
2022/11/29 09:39:49;;;;;;;;;27.50;20.25;;;;;9.96;61.14;101288.28;5036377;28;72239;-37
2022/11/29 09:42:22;;;;;;;;;23.75;18.00;;;;;9.98;61.12;101289.13;5024052;28;64450;-37
2022/11/29 09:45:03;;;;;;;;;25.00;20.00;;;;;10.00;61.22;101297.81;5029973;28;45289;-37
2022/11/29 09:47:59;;;;;;;;;24.25;20.00;;;;;9.99;61.23;101299.56;5031210;28;45389;-37
2022/11/29 09:50:36;;;;;;;;;20.75;16.00;;;;;10.01;60.87;101302.16;5033342;28;46445;-37
2022/11/29 09:53:26;;;;;;;;;22.50;15.75;;;;;9.99;60.83;101302.19;5024510;28;45463;-36
2022/11/29 09:56:11;;;;;;;;;20.25;15.00;;;;;10.00;60.82;101295.19;5028426;28;45448;-36
2022/11/29 09:58:42;;;;;;;;;22.00;16.75;;;;;9.99;61.01;101304.78;5031194;28;45538;-36
2022/11/29 10:01:12;;;;;;;;;23.00;16.25;;;;;9.98;60.76;101307.44;5021232;28;46283;-37
2022/11/29 10:03:41;;;;;;;;;17.00;15.25;;;;;9.97;61.04;101316.16;5046442;28;45919;-36
2022/11/29 10:06:22;;;;;;;;;24.00;16.00;;;;;9.97;60.87;101321.38;5021384;28;45341;-37
2022/11/29 10:09:07;;;;;;;;;25.75;16.75;;;;;9.95;60.75;101336.22;5033602;27;45381;-37
2022/11/29 10:12:04;;;;;;;;;19.50;14.75;;;;;9.90;60.61;101328.47;5029139;28;46363;-36
2022/11/29 10:14:45;;;;;;;;;18.75;14.50;;;;;9.87;60.85;101333.75;5025316;28;45864;-37
2022/11/29 10:17:24;;;;;;;;;24.25;16.25;;;;;9.85;60.48;101325.91;5037641;28;45564;-38
2022/11/29 10:19:52;;;;;;;;;19.25;14.25;;;;;9.81;60.48;101325.97;5027269;28;45261;-37
2022/11/29 10:22:24;;;;;;;;;20.50;16.25;;;;;9.80;60.76;101332.09;5039062;28;45715;-38
2022/11/29 10:24:56;;;;;;;;;17.75;15.75;;;;;9.80;60.83;101321.66;5043901;27;45300;-37
2022/11/29 10:27:22;;;;;;;;;18.75;17.25;;;;;9.82;60.61;101327.72;5034446;28;45577;-37
2022/11/29 10:29:51;;;;;;;;;19.25;16.00;;;;;9.84;60.70;101323.31;5037374;28;46162;-37
2022/11/29 10:32:20;;;;;;;;;19.75;15.25;;;;;9.85;60.89;101330.28;5047355;28;46136;-37
2022/11/29 10:34:46;;;;;;;;;23.00;16.50;;;;;9.89;61.07;101331.97;5029627;28;45279;-37
2022/11/29 10:37:15;;;;;;;;;20.75;18.75;;;;;9.92;60.78;101339.78;5034295;28;45426;-37
2022/11/29 10:39:46;;;;;;;;;23.00;20.75;;;;;9.92;60.77;101341.53;5034939;28;45536;-37
2022/11/29 10:45:32;;;;;;;;;26.75;18.50;;;;;9.97;60.46;101335.34;5033069;28;45866;-37
2022/11/29 10:48:03;;;;;;;;;23.75;17.75;;;;;10.00;60.50;101343.13;5032879;28;45278;-38
2022/11/29 10:50:30;;;;;;;;;34.25;20.50;;;;;10.05;60.39;101337.81;5037066;28;45294;-37
2022/11/29 10:53:07;;;;;;;;;29.25;21.25;;;;;10.05;60.44;101333.44;5028017;28;46180;-37
2022/11/29 10:55:40;;;;;;;;;24.50;18.50;;;;;10.07;60.33;101334.31;5025802;28;45292;-37
2022/11/29 10:58:08;;;;;;;;;31.00;21.50;;;;;10.08;60.33;101335.19;5034210;28;45360;-37
2022/11/29 11:01:09;;;;;;;;;22.50;19.75;;;;;10.11;60.36;101344.72;5039646;28;45401;-38
2022/11/29 11:03:53;;;;;;;;;22.25;17.75;;;;;10.15;60.47;101338.56;5031074;27;45271;-37
2022/11/29 11:06:39;;;;;;;;;31.50;25.00;;;;;10.19;59.98;101337.63;5034821;28;45565;-37
2022/11/29 11:09:17;;;;;;;;;31.50;21.75;;;;;10.19;59.86;101345.47;5020708;28;45437;-37
2022/11/29 11:11:49;;;;;;;;;30.75;26.50;;;;;10.21;60.04;101346.31;5092915;27;45323;-37
2022/11/29 11:14:28;;;;;;;;;46.50;34.75;;;;;10.25;60.20;101343.63;5044655;27;45558;-37
2022/11/29 11:16:54;;;;;;;;;33.00;26.25;;;;;10.29;60.28;101343.56;5027412;28;45238;-37
2022/11/29 11:19:24;;;;;;;;;29.25;25.25;;;;;10.34;59.99;101344.38;5020010;28;45409;-37
2022/11/29 11:21:50;;;;;;;;;29.50;26.00;;;;;10.35;59.86;101354.81;5017272;28;45478;-37
2022/11/29 11:24:28;;;;;;;;;34.00;27.75;;;;;10.37;59.77;101347.81;5045327;28;72751;-37
2022/11/29 11:26:54;;;;;;;;;26.25;21.25;;;;;10.39;60.12;101346.06;5054330;27;45233;-37
2022/11/29 11:29:23;;;;;;;;;37.25;28.75;;;;;10.42;59.72;101353.84;5060086;27;45250;-37
2022/11/29 11:31:57;;;;;;;;;25.00;24.00;;;;;10.48;59.78;101352.00;5072373;27;45506;-37
2022/11/29 11:34:37;;;;;;;;;31.00;24.75;;;;;10.49;59.69;101351.13;5031202;28;45386;-37
2022/11/29 11:37:18;;;;;;;;;30.25;24.50;;;;;10.50;59.65;101345.00;5035635;28;45488;-37
2022/11/29 11:39:46;;;;;;;;;28.25;21.50;;;;;10.51;59.65;101342.34;5035424;28;45432;-37
2022/11/29 11:44:58;;;;;;;;;29.75;22.75;;;;;10.55;59.58;101349.28;5042649;27;45710;-37
2022/11/29 11:47:26;;;;;;;;;27.25;22.00;;;;;10.55;59.65;101338.81;5051153;28;65510;-38
2022/11/29 11:50:03;;;;;;;;;30.00;20.75;;;;;10.60;59.30;101346.56;5036671;28;45268;-37
2022/11/29 11:52:41;;;;;;;;;26.00;23.50;;;;;10.64;59.61;101349.13;5030498;28;45296;-37
2022/11/29 11:55:28;;;;;;;;;24.75;22.25;;;;;10.69;59.36;101345.53;5026552;28;45475;-37
2022/11/29 11:58:12;;;;;;;;;31.00;22.75;;;;;10.71;59.29;101352.50;5028823;28;45284;-37
2022/11/29 12:00:42;;;;;;;;;21.50;19.00;;;;;10.73;59.28;101345.47;5024624;28;45473;-37
2022/11/29 12:03:24;;;;;;;;;25.50;21.25;;;;;10.76;59.31;101347.16;5032261;28;45323;-37
2022/11/29 12:05:53;;;;;;;;;28.50;22.75;;;;;10.79;59.40;101354.97;5035176;27;47177;-37